createdAt,value
2023-04-01T00:01:22.290Z,3.30
2023-04-01T00:03:51.856Z,4.20
2023-04-01T00:06:20.557Z,3.00
2023-04-01T00:08:48.836Z,3.50
2023-04-01T00:11:20.607Z,3.00
2023-04-01T00:13:49.333Z,2.80
2023-04-01T00:16:22.184Z,2.50
2023-04-01T00:18:51.879Z,3.40
2023-04-01T00:21:21.521Z,4.10
2023-04-01T00:23:51.718Z,3.10
2023-04-01T00:26:22.154Z,2.70
2023-04-01T00:28:51.249Z,2.70
2023-04-01T00:31:19.505Z,2.50
2023-04-01T00:33:47.842Z,2.80
2023-04-01T00:36:18.260Z,2.60
2023-04-01T00:38:48.051Z,2.60
2023-04-01T00:41:18.163Z,3.20
2023-04-01T00:43:50.563Z,3.50
2023-04-01T00:46:19.474Z,2.70
2023-04-01T00:48:53.382Z,2.40
2023-04-01T00:51:23.201Z,2.60
2023-04-01T00:53:52.718Z,2.80
2023-04-01T00:56:27.988Z,2.30
2023-04-01T00:59:00.046Z,2.30
2023-04-01T01:01:28.585Z,3.40
2023-04-01T01:03:57.824Z,3.10
2023-04-01T01:06:40.166Z,2.30
2023-04-01T01:09:25.861Z,2.60
2023-04-01T01:12:14.792Z,2.30
2023-04-01T01:15:19.124Z,2.90
2023-04-01T01:18:03.090Z,2.80
2023-04-01T01:20:40.746Z,2.30
2023-04-01T01:23:15.503Z,2.70
2023-04-01T01:25:56.891Z,3.50
2023-04-01T01:28:43.597Z,2.80
2023-04-01T01:31:49.552Z,3.50
2023-04-01T01:34:37.289Z,2.80
2023-04-01T01:39:40.433Z,2.70
2023-04-01T01:42:10.500Z,3.20
2023-04-01T01:44:38.733Z,3.30
2023-04-01T01:47:07.120Z,3.00
2023-04-01T01:49:35.600Z,2.60
2023-04-01T01:52:04.811Z,2.80
2023-04-01T01:54:33.084Z,3.00
2023-04-01T01:57:07.981Z,3.30
2023-04-01T01:59:38.724Z,3.00
2023-04-01T02:02:09.218Z,2.80
2023-04-01T02:04:40.679Z,2.80
2023-04-01T02:07:21.504Z,3.60
2023-04-01T02:09:49.885Z,3.20
2023-04-01T02:12:18.503Z,3.20
2023-04-01T02:14:59.244Z,3.20
2023-04-01T02:17:28.944Z,2.70
2023-04-01T02:20:05.692Z,3.20
2023-04-01T02:22:38.739Z,3.00
2023-04-01T02:25:18.470Z,3.20
2023-04-01T02:27:50.857Z,2.60
2023-04-01T02:30:19.720Z,2.90
2023-04-01T02:32:49.901Z,2.60
2023-04-01T02:35:18.371Z,2.70
2023-04-01T02:37:48.046Z,2.60
2023-04-01T02:40:21.545Z,2.60
2023-04-01T02:42:51.977Z,2.20
2023-04-01T02:54:14.243Z,3.20
2023-04-01T02:56:42.931Z,3.70
2023-04-01T02:59:13.288Z,2.60
2023-04-01T03:01:42.024Z,3.20
2023-04-01T03:04:10.639Z,3.50
2023-04-01T03:06:40.152Z,3.60
2023-04-01T03:09:08.410Z,3.20
2023-04-01T03:11:36.711Z,3.70
2023-04-01T03:14:06.236Z,2.80
2023-04-01T03:16:34.638Z,3.80
2023-04-01T03:19:03.427Z,3.20
2023-04-01T03:21:32.678Z,2.20
2023-04-01T03:24:01.086Z,3.10
2023-04-01T03:26:36.722Z,2.40
2023-04-01T03:29:05.844Z,3.10
2023-04-01T03:31:34.230Z,3.30
2023-04-01T03:34:02.893Z,3.20
2023-04-01T03:36:31.442Z,2.50
2023-04-01T03:39:04.864Z,3.20
2023-04-01T03:41:38.766Z,3.60
2023-04-01T03:44:07.431Z,3.50
2023-04-01T03:46:36.894Z,2.50
2023-04-01T03:49:12.560Z,2.60
2023-04-01T03:51:45.527Z,3.00
2023-04-01T03:54:14.626Z,2.40
2023-04-01T03:56:43.229Z,2.90
2023-04-01T03:59:12.720Z,3.50
2023-04-01T04:01:41.306Z,3.40
2023-04-01T04:04:14.266Z,3.00
2023-04-01T04:06:46.160Z,3.10
2023-04-01T04:09:14.854Z,5.40
2023-04-01T04:11:43.129Z,3.90
2023-04-01T04:14:12.446Z,3.50
2023-04-01T04:16:41.128Z,4.10
2023-04-01T04:19:09.775Z,6.80
2023-04-01T04:21:38.916Z,4.80
2023-04-01T04:24:07.403Z,5.40
2023-04-01T04:26:55.860Z,5.10
2023-04-01T04:29:24.757Z,3.70
2023-04-01T04:31:53.290Z,3.70
2023-04-01T04:34:23.662Z,3.40
2023-04-01T04:36:52.041Z,3.80
2023-04-01T04:39:20.841Z,3.80
2023-04-01T04:41:49.520Z,4.10
2023-04-01T04:44:17.796Z,4.10
2023-04-01T04:46:46.364Z,4.10
2023-04-01T04:49:16.109Z,4.20
2023-04-01T04:51:45.134Z,3.40
2023-04-01T04:54:13.664Z,2.90
2023-04-01T04:56:59.108Z,3.90
2023-04-01T04:59:28.357Z,3.70
2023-04-01T05:02:32.190Z,2.90
2023-04-01T05:05:00.647Z,3.70
2023-04-01T05:07:29.326Z,4.00
2023-04-01T05:09:58.198Z,4.10
2023-04-01T05:12:26.815Z,4.90
2023-04-01T05:14:58.359Z,4.10
2023-04-01T05:17:26.915Z,3.50
2023-04-01T05:19:56.153Z,3.60
2023-04-01T05:22:24.803Z,3.90
2023-04-01T05:24:55.435Z,3.90
2023-04-01T05:27:24.422Z,4.30
2023-04-01T05:29:54.697Z,4.20
2023-04-01T05:33:04.781Z,4.30
2023-04-01T05:35:33.714Z,3.90
2023-04-01T05:38:04.111Z,4.60
2023-04-01T05:40:33.364Z,4.40
2023-04-01T05:43:01.861Z,4.30
2023-04-01T05:45:30.477Z,5.40
2023-04-01T05:48:14.607Z,4.90
2023-04-01T05:50:44.959Z,3.50
2023-04-01T05:53:14.213Z,3.20
2023-04-01T05:55:44.350Z,5.00
2023-04-01T05:58:13.021Z,3.60
2023-04-01T06:00:42.426Z,3.90
2023-04-01T06:03:30.803Z,4.30
2023-04-01T06:05:59.119Z,4.00
2023-04-01T06:08:34.696Z,3.80
2023-04-01T06:11:11.366Z,4.20
2023-04-01T06:13:48.959Z,3.10
2023-04-01T06:16:33.103Z,4.30
2023-04-01T06:19:34.749Z,4.20
2023-04-01T06:22:10.404Z,4.60
2023-04-01T06:25:00.775Z,4.70
2023-04-01T06:27:41.546Z,4.50
2023-04-01T06:30:36.228Z,5.90
2023-04-01T06:33:31.455Z,5.40
2023-04-01T06:36:06.103Z,5.20
2023-04-01T06:38:48.172Z,4.90
2023-04-01T06:41:39.758Z,5.30
2023-04-01T06:44:27.378Z,4.10
2023-04-01T06:47:20.219Z,4.60
2023-04-01T06:50:27.174Z,4.80
2023-04-01T06:53:26.472Z,5.00
2023-04-01T06:56:09.649Z,5.30
2023-04-01T06:59:06.403Z,5.20
2023-04-01T07:01:49.384Z,4.80
2023-04-01T07:04:24.167Z,4.70
2023-04-01T07:06:57.185Z,3.70
2023-04-01T07:09:38.302Z,5.10
2023-04-01T07:12:37.408Z,5.90
2023-04-01T07:15:31.808Z,5.10
2023-04-01T07:18:08.317Z,4.60
2023-04-01T07:20:37.735Z,5.60
2023-04-01T07:23:08.479Z,5.00
2023-04-01T07:26:21.958Z,4.60
2023-04-01T07:29:14.081Z,5.30
2023-04-01T07:32:04.555Z,6.00
2023-04-01T07:34:51.932Z,5.30
2023-04-01T07:37:30.756Z,5.10
2023-04-01T07:40:12.239Z,5.90
2023-04-01T07:43:20.359Z,5.00
2023-04-01T07:46:05.584Z,5.40
2023-04-01T07:49:04.957Z,6.00
2023-04-01T07:51:37.506Z,5.50
2023-04-01T07:54:41.458Z,6.80
2023-04-01T07:57:32.092Z,6.70
2023-04-01T08:00:08.428Z,5.40
2023-04-01T08:02:46.188Z,5.70
2023-04-01T08:05:17.360Z,5.90
2023-04-01T08:07:57.716Z,6.80
2023-04-01T08:10:59.046Z,5.80
2023-04-01T08:14:07.852Z,6.30
2023-04-01T08:17:02.849Z,6.60
2023-04-01T08:20:16.952Z,7.20
2023-04-01T08:22:48.969Z,6.80
2023-04-01T08:25:25.765Z,6.20
2023-04-01T08:28:22.454Z,6.50
2023-04-01T08:30:56.477Z,5.70
2023-04-01T08:33:29.713Z,6.20
2023-04-01T08:36:19.039Z,7.50
2023-04-01T08:39:01.018Z,6.90
2023-04-01T08:41:48.212Z,6.70
2023-04-01T08:45:01.233Z,6.20
2023-04-01T08:47:47.981Z,7.20
2023-04-01T08:50:53.846Z,6.50
2023-04-01T08:54:00.201Z,6.00
2023-04-01T08:56:44.102Z,6.60
2023-04-01T08:59:28.786Z,7.10
